createdAt,value
2023-04-15T00:00:38.740Z,10.38
2023-04-15T00:03:54.721Z,11.23
2023-04-15T00:07:03.241Z,11.45
2023-04-15T00:10:12.025Z,10.85
2023-04-15T00:13:17.253Z,10.73
2023-04-15T00:16:25.314Z,10.07
2023-04-15T00:19:30.400Z,10.95
2023-04-15T00:22:35.822Z,11.00
2023-04-15T00:25:43.521Z,10.63
2023-04-15T00:28:49.206Z,10.90
2023-04-15T00:31:55.231Z,11.65
2023-04-15T00:35:02.607Z,11.02
2023-04-15T00:38:08.286Z,11.88
2023-04-15T00:41:17.484Z,11.57
2023-04-15T00:44:30.143Z,12.00
2023-04-15T00:47:37.457Z,11.55
2023-04-15T00:50:42.446Z,10.82
2023-04-15T00:53:50.250Z,11.48
2023-04-15T00:57:00.022Z,11.18
2023-04-15T01:00:06.533Z,11.90
2023-04-15T01:03:11.871Z,12.25
2023-04-15T01:06:17.620Z,12.43
2023-04-15T01:09:22.654Z,12.20
2023-04-15T01:12:31.007Z,12.00
2023-04-15T01:15:39.018Z,11.10
2023-04-15T01:18:44.499Z,13.10
2023-04-15T01:21:49.499Z,12.48
2023-04-15T01:24:58.881Z,12.00
2023-04-15T01:28:09.820Z,10.35
2023-04-15T01:31:15.886Z,11.90
2023-04-15T01:34:21.413Z,11.73
2023-04-15T01:37:27.892Z,11.07
2023-04-15T01:40:33.240Z,11.43
2023-04-15T01:43:41.511Z,12.55
2023-04-15T01:46:46.805Z,12.32
2023-04-15T01:49:54.455Z,12.90
2023-04-15T01:52:59.436Z,13.52
2023-04-15T01:56:04.972Z,11.68
2023-04-15T01:59:13.203Z,12.90
2023-04-15T02:02:21.348Z,11.07
2023-04-15T02:05:27.542Z,11.85
2023-04-15T02:08:32.926Z,10.48
2023-04-15T02:11:38.247Z,10.52
2023-04-15T02:14:46.460Z,10.50
2023-04-15T02:17:55.055Z,10.38
2023-04-15T02:21:00.424Z,10.85
2023-04-15T02:24:05.843Z,10.52
2023-04-15T02:27:13.697Z,10.80
2023-04-15T02:30:24.141Z,10.90
2023-04-15T02:33:29.502Z,10.43
2023-04-15T02:36:34.856Z,11.45
2023-04-15T02:39:40.262Z,11.38
2023-04-15T02:42:46.019Z,11.68
2023-04-15T02:45:54.590Z,11.35
2023-04-15T02:49:00.645Z,10.70
2023-04-15T02:52:06.629Z,11.48
2023-04-15T02:55:12.064Z,9.65
2023-04-15T02:58:17.391Z,11.98
2023-04-15T03:01:26.766Z,11.88
2023-04-15T03:04:33.735Z,12.38
2023-04-15T03:07:38.775Z,10.60
2023-04-15T03:10:48.166Z,12.48
2023-04-15T03:13:54.786Z,12.93
2023-04-15T03:17:06.888Z,12.32
2023-04-15T03:20:13.735Z,13.57
2023-04-15T03:23:19.178Z,13.77
2023-04-15T03:26:27.986Z,13.07
2023-04-15T03:29:33.790Z,13.50
2023-04-15T03:32:41.780Z,13.60
2023-04-15T03:35:51.100Z,14.23
2023-04-15T03:38:56.408Z,13.90
2023-04-15T03:42:04.644Z,15.35
2023-04-15T03:45:10.658Z,13.75
2023-04-15T03:48:20.059Z,15.10
2023-04-15T03:51:26.568Z,16.17
2023-04-15T03:54:31.908Z,16.38
2023-04-15T03:57:39.455Z,16.38
2023-04-15T04:00:45.120Z,15.82
2023-04-15T04:03:53.052Z,16.63
2023-04-15T04:07:02.635Z,17.17
2023-04-15T04:10:08.102Z,17.10
2023-04-15T04:13:13.819Z,18.10
2023-04-15T04:16:18.922Z,15.55
2023-04-15T04:19:29.169Z,17.05
2023-04-15T04:22:34.191Z,16.42
2023-04-15T04:25:39.508Z,15.13
2023-04-15T04:28:44.741Z,18.38
2023-04-15T04:31:50.215Z,17.90
2023-04-15T04:35:01.536Z,15.15
2023-04-15T04:38:07.086Z,18.35
2023-04-15T04:41:12.081Z,16.77
2023-04-15T04:44:17.406Z,16.80
2023-04-15T04:47:22.440Z,17.35
2023-04-15T04:50:30.451Z,18.48
2023-04-15T04:53:38.335Z,15.55
2023-04-15T04:56:44.229Z,17.60
2023-04-15T04:59:49.259Z,17.80
2023-04-15T05:02:55.362Z,16.75
2023-04-15T05:06:06.372Z,18.38
2023-04-15T05:09:12.363Z,16.17
2023-04-15T05:12:18.499Z,13.70
2023-04-15T05:15:24.173Z,14.85
2023-04-15T05:18:29.410Z,16.55
2023-04-15T05:21:39.438Z,16.33
2023-04-15T05:24:44.692Z,14.02
2023-04-15T05:27:51.529Z,16.38
2023-04-15T05:30:56.674Z,15.63
2023-04-15T05:34:04.033Z,14.77
2023-04-15T05:37:11.723Z,14.52
2023-04-15T05:40:19.068Z,14.07
2023-04-15T05:43:24.403Z,14.30
2023-04-15T05:46:32.671Z,15.30
2023-04-15T05:49:38.529Z,14.13
2023-04-15T05:52:47.051Z,13.05
2023-04-15T05:55:54.031Z,14.38
2023-04-15T05:58:59.712Z,15.25
2023-04-15T06:02:04.986Z,15.82
2023-04-15T06:05:14.015Z,15.23
2023-04-15T06:08:22.623Z,15.85
2023-04-15T06:11:29.769Z,16.15
2023-04-15T06:14:34.825Z,15.68
2023-04-15T06:17:40.512Z,15.95
2023-04-15T06:20:45.587Z,15.50
2023-04-15T06:23:53.592Z,15.43
2023-04-15T06:26:59.012Z,15.38
2023-04-15T06:30:04.550Z,16.13
2023-04-15T06:33:13.151Z,16.13
2023-04-15T06:36:18.723Z,16.05
2023-04-15T06:39:26.436Z,16.50
2023-04-15T06:42:32.034Z,17.00
2023-04-15T06:45:37.089Z,13.70
2023-04-15T06:48:50.078Z,15.43
2023-04-15T06:51:55.069Z,14.63
2023-04-15T06:55:03.261Z,16.92
2023-04-15T06:58:08.270Z,15.98
2023-04-15T07:01:15.196Z,16.88
2023-04-15T07:04:20.786Z,15.20
2023-04-15T07:07:26.689Z,15.52
2023-04-15T07:10:36.552Z,16.85
2023-04-15T07:13:41.919Z,15.88
2023-04-15T07:16:52.176Z,16.42
2023-04-15T07:20:17.432Z,16.40
2023-04-15T07:23:23.726Z,14.40
2023-04-15T07:26:44.097Z,16.70
2023-04-15T07:29:52.325Z,15.48
2023-04-15T07:32:59.160Z,16.63
2023-04-15T07:36:10.983Z,15.45
2023-04-15T07:39:18.528Z,16.35
2023-04-15T07:42:26.591Z,15.25
2023-04-15T07:45:32.020Z,15.63
2023-04-15T07:48:39.133Z,13.57
2023-04-15T07:51:44.652Z,14.52
2023-04-15T07:54:50.077Z,15.45
2023-04-15T07:57:59.989Z,15.95
2023-04-15T08:01:05.577Z,15.32
2023-04-15T08:04:11.138Z,15.90
2023-04-15T08:07:16.376Z,15.68
2023-04-15T08:10:22.018Z,13.98
2023-04-15T08:13:34.021Z,15.30
2023-04-15T08:16:41.769Z,11.23
2023-04-15T08:19:49.489Z,13.82
2023-04-15T08:22:56.149Z,12.65
2023-04-15T08:26:01.219Z,14.75
2023-04-15T08:29:09.415Z,13.68
2023-04-15T08:32:15.153Z,14.77
2023-04-15T08:35:21.471Z,13.70
2023-04-15T08:38:29.766Z,14.55
2023-04-15T08:41:37.476Z,13.98
2023-04-15T08:44:48.016Z,13.25
2023-04-15T08:47:58.476Z,15.70
2023-04-15T08:51:06.286Z,15.07
2023-04-15T08:54:15.380Z,12.93
2023-04-15T08:57:22.963Z,12.80
2023-04-15T09:00:32.693Z,13.52
2023-04-15T09:03:45.347Z,14.23
2023-04-15T09:06:55.218Z,14.65
2023-04-15T09:10:00.653Z,14.68
2023-04-15T09:13:06.493Z,14.95
2023-04-15T09:16:14.159Z,13.10
2023-04-15T09:19:24.835Z,13.07
2023-04-15T09:22:35.060Z,14.77
2023-04-15T09:25:42.613Z,13.90
2023-04-15T09:28:47.621Z,13.65
2023-04-15T09:31:55.989Z,12.75
2023-04-15T09:35:00.991Z,14.27
2023-04-15T09:38:07.690Z,13.90
2023-04-15T09:41:19.952Z,12.63
2023-04-15T09:47:39.683Z,12.52
2023-04-15T09:50:45.759Z,14.05
2023-04-15T09:53:57.508Z,11.95
2023-04-15T09:57:08.220Z,12.60
2023-04-15T10:00:14.294Z,12.20
2023-04-15T10:03:24.188Z,12.57
2023-04-15T10:06:31.740Z,13.75
2023-04-15T10:09:40.428Z,12.15
2023-04-15T10:12:48.578Z,12.57
2023-04-15T10:15:55.004Z,11.73
2023-04-15T10:19:04.709Z,13.43
2023-04-15T10:22:10.192Z,13.93
2023-04-15T10:25:15.941Z,13.63
2023-04-15T10:28:23.041Z,14.07
2023-04-15T10:31:28.947Z,13.60
2023-04-15T10:34:37.979Z,12.93
2023-04-15T10:37:43.022Z,13.80
2023-04-15T10:40:48.515Z,12.75
2023-04-15T10:47:18.906Z,13.32
2023-04-15T10:50:30.012Z,15.30
2023-04-15T10:53:38.141Z,13.38
2023-04-15T10:56:44.821Z,13.35
2023-04-15T11:00:04.965Z,11.63
2023-04-15T11:03:13.453Z,12.40
2023-04-15T11:06:21.699Z,13.07
2023-04-15T11:09:34.622Z,12.73
2023-04-15T11:12:40.283Z,11.73
2023-04-15T11:15:47.238Z,12.30
2023-04-15T11:18:57.849Z,12.88
2023-04-15T11:22:12.543Z,11.38
2023-04-15T11:25:25.417Z,12.02
2023-04-15T11:31:36.132Z,12.15
2023-04-15T11:34:41.198Z,11.63
2023-04-15T11:37:52.548Z,12.23
2023-04-15T11:40:57.644Z,12.75
2023-04-15T11:44:03.303Z,12.98
2023-04-15T11:47:23.589Z,10.88
2023-04-15T11:50:30.862Z,11.98
2023-04-15T11:57:02.689Z,10.98
2023-04-15T12:00:09.972Z,11.52
2023-04-15T12:03:26.766Z,11.65
2023-04-15T12:06:37.531Z,13.07
2023-04-15T12:09:42.961Z,12.48
2023-04-15T12:12:55.459Z,11.75
2023-04-15T12:16:00.507Z,12.25
2023-04-15T12:19:08.671Z,11.27
2023-04-15T12:22:15.491Z,13.27
2023-04-15T12:25:21.000Z,12.25
2023-04-15T12:28:28.638Z,11.60
2023-04-15T12:31:35.012Z,11.07
2023-04-15T12:34:40.673Z,11.23
2023-04-15T12:37:46.764Z,11.15
2023-04-15T12:40:54.226Z,11.27
2023-04-15T12:44:03.085Z,12.00
2023-04-15T12:47:08.960Z,12.38
2023-04-15T12:50:14.338Z,11.65
2023-04-15T12:53:23.512Z,11.77
2023-04-15T12:56:29.784Z,11.98
2023-04-15T12:59:37.770Z,11.93
2023-04-15T13:02:46.899Z,11.98
2023-04-15T13:05:53.241Z,11.82
2023-04-15T13:08:59.790Z,11.68
2023-04-15T13:12:05.774Z,11.32
2023-04-15T13:15:15.789Z,11.65
2023-04-15T13:18:20.937Z,11.00
2023-04-15T13:21:27.517Z,11.60
2023-04-15T13:24:32.616Z,12.23
2023-04-15T13:27:38.380Z,13.27
2023-04-15T13:30:50.807Z,11.95
2023-04-15T13:33:56.430Z,11.95
2023-04-15T13:37:01.612Z,12.45
2023-04-15T13:40:10.156Z,13.50
2023-04-15T13:43:17.764Z,12.35
2023-04-15T13:46:26.339Z,11.68
2023-04-15T13:49:31.495Z,11.88
2023-04-15T13:52:37.589Z,12.02
2023-04-15T13:55:43.247Z,11.82
2023-04-15T13:58:55.038Z,11.18
2023-04-15T14:02:02.743Z,10.88
2023-04-15T14:05:12.606Z,11.40
2023-04-15T14:08:18.368Z,11.15
2023-04-15T14:11:24.506Z,10.57
2023-04-15T14:14:29.998Z,11.18
2023-04-15T14:17:39.069Z,10.73
2023-04-15T14:20:44.178Z,11.20
2023-04-15T14:23:49.606Z,12.45
2023-04-15T14:26:54.593Z,12.05
2023-04-15T14:30:00.786Z,11.82
2023-04-15T14:33:08.378Z,12.40
2023-04-15T14:36:13.794Z,12.02
2023-04-15T14:39:21.515Z,12.02
2023-04-15T14:42:26.879Z,11.93
2023-04-15T14:45:33.003Z,11.88
2023-04-15T14:48:41.125Z,13.65
2023-04-15T14:51:46.687Z,13.48
2023-04-15T14:54:53.655Z,12.00
2023-04-15T14:57:58.691Z,10.88
2023-04-15T15:01:05.062Z,12.93
2023-04-15T15:04:13.297Z,12.02
2023-04-15T15:07:18.741Z,11.85
2023-04-15T15:10:33.693Z,12.02
2023-04-15T15:13:49.012Z,11.52
2023-04-15T15:16:54.049Z,11.95
2023-04-15T15:20:03.898Z,11.55
2023-04-15T15:23:11.764Z,11.50
2023-04-15T15:26:17.965Z,11.10
2023-04-15T15:29:23.115Z,11.55
2023-04-15T15:32:28.655Z,10.43
2023-04-15T15:35:36.888Z,11.63
2023-04-15T15:38:44.038Z,11.25
2023-04-15T15:41:48.990Z,11.48
2023-04-15T15:44:54.650Z,10.80
2023-04-15T15:48:01.690Z,10.77
2023-04-15T15:51:09.705Z,12.55
2023-04-15T15:54:20.017Z,11.23
2023-04-15T15:57:28.543Z,11.75
2023-04-15T16:00:33.543Z,11.32
2023-04-15T16:03:39.521Z,11.40
2023-04-15T16:06:47.591Z,11.77
2023-04-15T16:09:52.929Z,12.88
2023-04-15T16:12:57.930Z,12.40
2023-04-15T16:16:05.967Z,11.90
2023-04-15T16:19:11.014Z,11.10
2023-04-15T16:22:19.247Z,10.23
2023-04-15T16:25:25.929Z,11.52
2023-04-15T16:28:35.483Z,12.30
2023-04-15T16:31:41.717Z,12.05
2023-04-15T16:34:47.331Z,13.30
2023-04-15T16:37:54.930Z,12.23
2023-04-15T16:41:03.848Z,12.60
2023-04-15T16:44:09.291Z,12.23
2023-04-15T16:47:15.051Z,13.70
2023-04-15T16:50:20.276Z,13.50
2023-04-15T16:53:31.842Z,12.63
2023-04-15T16:56:36.946Z,14.98
2023-04-15T16:59:42.762Z,13.00
2023-04-15T17:02:47.894Z,12.45
2023-04-15T17:05:53.604Z,12.38
2023-04-15T17:09:01.290Z,13.50
2023-04-15T17:12:10.109Z,13.30
2023-04-15T17:15:15.200Z,14.40
2023-04-15T17:18:21.759Z,14.88
2023-04-15T17:21:26.863Z,13.68
2023-04-15T17:24:35.349Z,12.98
2023-04-15T17:27:41.250Z,11.70
2023-04-15T17:30:46.998Z,13.07
2023-04-15T17:34:03.180Z,11.85
2023-04-15T17:37:15.409Z,10.65
2023-04-15T17:40:23.958Z,11.30
2023-04-15T17:43:29.659Z,11.20
2023-04-15T17:46:35.117Z,11.20
2023-04-15T17:49:40.636Z,10.75
2023-04-15T17:52:49.518Z,11.45
2023-04-15T17:55:58.121Z,11.57
2023-04-15T17:59:03.888Z,10.68
2023-04-15T18:02:10.614Z,11.45
2023-04-15T18:05:15.785Z,10.98
2023-04-15T18:08:21.707Z,10.68
2023-04-15T18:11:29.556Z,12.00
2023-04-15T18:14:37.659Z,11.65
2023-04-15T18:17:42.987Z,11.60
2023-04-15T18:20:50.961Z,11.95
2023-04-15T18:23:56.293Z,12.38
2023-04-15T18:27:05.180Z,11.85
2023-04-15T18:30:12.514Z,11.90
2023-04-15T18:33:18.242Z,11.70
2023-04-15T18:36:24.354Z,12.80
2023-04-15T18:39:29.800Z,13.88
2023-04-15T18:42:41.089Z,12.50
2023-04-15T18:45:46.953Z,13.40
2023-04-15T18:49:00.309Z,14.85
2023-04-15T18:52:06.836Z,14.02
2023-04-15T18:55:15.709Z,14.10
2023-04-15T18:58:26.219Z,13.60
2023-04-15T19:01:31.838Z,14.57
2023-04-15T19:04:39.657Z,15.57
2023-04-15T19:07:45.299Z,14.60
2023-04-15T19:10:51.618Z,13.70
2023-04-15T19:14:00.660Z,14.75
2023-04-15T19:17:06.609Z,14.82
2023-04-15T19:20:14.804Z,12.27
2023-04-15T19:23:21.001Z,13.18
2023-04-15T19:26:26.958Z,12.50
2023-04-15T19:29:36.731Z,12.73
2023-04-15T19:32:43.800Z,12.15
2023-04-15T19:35:50.265Z,12.60
2023-04-15T19:38:58.970Z,12.52
2023-04-15T19:42:05.233Z,12.88
2023-04-15T19:45:25.743Z,12.75
2023-04-15T19:48:32.788Z,14.30
2023-04-15T19:51:38.284Z,12.52
2023-04-15T19:54:45.643Z,12.40
2023-04-15T19:57:50.759Z,12.75
2023-04-15T20:01:03.053Z,12.98
2023-04-15T20:04:11.136Z,13.38
2023-04-15T20:07:18.126Z,12.48
2023-04-15T20:10:23.233Z,13.57
2023-04-15T20:13:29.073Z,11.75
2023-04-15T20:16:39.481Z,12.65
2023-04-15T20:19:46.582Z,12.68
2023-04-15T20:22:53.311Z,12.00
2023-04-15T20:25:59.156Z,12.23
2023-04-15T20:29:07.904Z,12.98
2023-04-15T20:32:17.916Z,12.50
2023-04-15T20:35:25.271Z,12.35
2023-04-15T20:38:31.132Z,11.95
2023-04-15T20:41:36.347Z,12.05
2023-04-15T20:44:42.139Z,12.07
2023-04-15T20:47:50.158Z,12.77
2023-04-15T20:50:57.225Z,12.30
2023-04-15T20:54:10.950Z,12.45
2023-04-15T20:57:24.845Z,13.20
2023-04-15T21:00:29.915Z,12.63
2023-04-15T21:03:41.106Z,11.98
2023-04-15T21:06:46.280Z,13.80
2023-04-15T21:09:52.223Z,12.38
2023-04-15T21:13:01.400Z,12.20
2023-04-15T21:16:08.596Z,13.65
2023-04-15T21:19:16.696Z,13.73
2023-04-15T21:22:22.117Z,14.57
2023-04-15T21:25:29.186Z,14.75
2023-04-15T21:28:40.806Z,14.30
2023-04-15T21:31:46.124Z,12.38
2023-04-15T21:34:56.837Z,14.02
2023-04-15T21:38:07.637Z,14.25
2023-04-15T21:41:13.467Z,14.38
2023-04-15T21:44:20.050Z,15.38
2023-04-15T21:47:25.971Z,15.57
2023-04-15T21:50:33.663Z,14.25
2023-04-15T21:53:39.403Z,14.15
2023-04-15T21:56:47.445Z,14.55
2023-04-15T21:59:54.679Z,14.15
2023-04-15T22:03:00.196Z,14.68
2023-04-15T22:06:08.242Z,15.25
2023-04-15T22:09:14.296Z,14.43
2023-04-15T22:12:21.931Z,14.52
2023-04-15T22:15:28.309Z,15.52
2023-04-15T22:18:33.675Z,15.32
2023-04-15T22:21:42.465Z,14.82
2023-04-15T22:24:48.973Z,14.82
2023-04-15T22:27:54.537Z,14.40
2023-04-15T22:31:02.675Z,15.00
2023-04-15T22:34:08.397Z,14.73
2023-04-15T22:37:16.535Z,15.20
2023-04-15T22:40:23.836Z,15.50
2023-04-15T22:43:29.585Z,15.38
2023-04-15T22:46:36.162Z,14.82
2023-04-15T22:49:41.911Z,13.68
2023-04-15T22:52:58.264Z,14.07
2023-04-15T22:56:05.731Z,14.95
2023-04-15T22:59:13.726Z,15.05
2023-04-15T23:02:19.646Z,13.57
2023-04-15T23:05:25.021Z,13.90
2023-04-15T23:08:33.079Z,14.48
2023-04-15T23:11:40.829Z,13.70
2023-04-15T23:14:48.650Z,13.20
2023-04-15T23:17:56.281Z,14.23
2023-04-15T23:21:02.224Z,13.07
2023-04-15T23:24:13.419Z,12.27
2023-04-15T23:27:19.242Z,11.88
2023-04-15T23:30:26.035Z,12.45
2023-04-15T23:33:33.982Z,14.90
2023-04-15T23:36:41.062Z,22.33
2023-04-15T23:39:50.197Z,23.80
2023-04-15T23:42:56.116Z,21.08
2023-04-15T23:46:03.010Z,19.23
2023-04-15T23:49:08.198Z,14.48
2023-04-15T23:52:13.700Z,13.35
2023-04-15T23:55:21.451Z,11.98
2023-04-15T23:58:29.249Z,9.43
